Time;durP1;ratioP1;P1;durP2;ratioP2;P2;SDS_P1;SDS_P2;PMS_P1;PMS_P2;Temp;Humidity;BMP_temperature;BMP_pressure;BME280_temperature;BME280_humidity;BME280_pressure;Samples;Min_cycle;Max_cycle;Signal;HPM_P1;HPM_P2
2022/11/17 00:00:10;;;;;;;;;;;4.20;99.90;;;;;;2701761;39;20420;31
2022/11/17 00:02:44;;;;;;;;;;;4.20;99.90;;;;;;2621720;47;19934;31
2022/11/17 00:05:18;;;;;;;;;;;4.20;99.90;;;;;;2603204;54;20802;31
2022/11/17 00:07:52;;;;;;;;;;;4.20;99.90;;;;;;2621444;47;19941;31
2022/11/17 00:10:29;;;;;;;;;;;4.20;99.90;;;;;;2603270;54;20712;31
2022/11/17 00:15:50;;;;;;;;;;;4.20;99.90;;;;;;2602884;54;19989;31
2022/11/17 00:21:25;;;;;;;;;;;4.20;99.90;;;;;;2621614;47;19935;31
2022/11/17 00:23:59;;;;;;;;;;;4.20;99.90;;;;;;2621667;47;19941;31
2022/11/17 00:27:00;;;;;;;;;;;4.20;99.90;;;;;;2603149;54;19976;31
2022/11/17 00:29:30;;;;;;;;;;;4.20;99.90;;;;;;2602814;54;19942;31
2022/11/17 00:34:52;;;;;;;;;;;4.20;99.90;;;;;;2621520;47;19942;31
2022/11/17 00:37:24;;;;;;;;;;;4.20;99.90;;;;;;2603958;54;20789;31
2022/11/17 00:39:58;;;;;;;;;;;4.10;99.90;;;;;;2603864;54;19958;31
2022/11/17 00:42:36;;;;;;;;;;;4.10;99.90;;;;;;2622419;46;20016;31
2022/11/17 00:47:39;;;;;;;;;;;4.20;99.90;;;;;;2702085;39;21421;31
2022/11/17 00:50:13;;;;;;;;;;;4.10;99.90;;;;;;2603907;54;19942;31
2022/11/17 00:52:48;;;;;;;;;;;4.20;99.90;;;;;;2603784;54;20472;31
2022/11/17 00:55:21;;;;;;;;;;;4.10;99.90;;;;;;2622332;46;19981;31
2022/11/17 00:57:58;;;;;;;;;;;4.10;99.90;;;;;;2610123;46;20453;31
2022/11/17 01:00:31;;;;;;;;;;;4.10;99.90;;;;;;2603631;54;20883;31
2022/11/17 01:03:04;;;;;;;;;;;4.10;99.90;;;;;;2604010;54;20702;31
2022/11/17 01:05:39;;;;;;;;;;;4.10;99.90;;;;;;2622412;46;19934;31
2022/11/17 01:08:12;;;;;;;;;;;4.10;99.90;;;;;;2622360;46;19934;31
2022/11/17 01:10:46;;;;;;;;;;;4.10;99.90;;;;;;2622338;46;19963;31
2022/11/17 01:13:23;;;;;;;;;;;4.20;99.90;;;;;;2604043;54;19934;31
2022/11/17 01:15:55;;;;;;;;;;;4.10;99.90;;;;;;2622379;46;19968;31
2022/11/17 01:18:29;;;;;;;;;;;4.10;99.90;;;;;;2603578;54;19934;31
2022/11/17 01:21:08;;;;;;;;;;;4.20;99.90;;;;;;2603674;54;19934;31
2022/11/17 01:23:42;;;;;;;;;;;4.20;99.90;;;;;;2603918;54;19940;31
2022/11/17 01:26:16;;;;;;;;;;;4.10;99.90;;;;;;2622191;46;19934;31
2022/11/17 01:28:51;;;;;;;;;;;4.10;99.90;;;;;;2603691;54;19961;31
2022/11/17 01:31:23;;;;;;;;;;;4.10;99.90;;;;;;2603726;54;20721;31
2022/11/17 01:33:57;;;;;;;;;;;4.10;99.90;;;;;;2603866;54;19989;31
2022/11/17 01:37:17;;;;;;;;;;;4.10;99.90;;;;;;2604015;54;19935;31
2022/11/17 01:39:25;;;;;;;;;;;4.10;99.90;;;;;;2603645;54;19941;31
2022/11/17 01:41:59;;;;;;;;;;;4.20;99.90;;;;;;2622072;46;19990;31
2022/11/17 01:44:47;;;;;;;;;;;4.10;99.90;;;;;;2603592;54;20761;31
2022/11/17 01:47:22;;;;;;;;;;;4.20;99.90;;;;;;2603739;54;19941;31
2022/11/17 01:49:57;;;;;;;;;;;4.20;99.90;;;;;;2622070;46;19989;31
2022/11/17 01:52:31;;;;;;;;;;;4.20;99.90;;;;;;2603771;54;19934;31
2022/11/17 01:55:05;;;;;;;;;;;4.20;99.90;;;;;;2622212;46;20816;31
2022/11/17 01:57:40;;;;;;;;;;;4.20;99.90;;;;;;2622007;46;20021;31
2022/11/17 02:00:16;;;;;;;;;;;4.20;99.90;;;;;;2622099;46;19966;31
2022/11/17 02:02:50;;;;;;;;;;;4.20;99.90;;;;;;2603870;54;19946;31
2022/11/17 02:05:28;;;;;;;;;;;4.20;99.90;;;;;;2603615;54;20021;31
2022/11/17 02:08:02;;;;;;;;;;;4.20;99.90;;;;;;2622486;46;20743;31
2022/11/17 02:10:37;;;;;;;;;;;4.20;99.90;;;;;;2603403;54;20019;31
2022/11/17 02:13:10;;;;;;;;;;;4.20;99.90;;;;;;2622126;46;20786;31
2022/11/17 02:15:47;;;;;;;;;;;4.20;99.90;;;;;;2603698;54;19989;31
2022/11/17 02:18:21;;;;;;;;;;;4.20;99.90;;;;;;2622264;46;20751;31
2022/11/17 02:20:58;;;;;;;;;;;4.20;99.90;;;;;;2603578;54;20494;31
2022/11/17 02:23:48;;;;;;;;;;;4.20;99.90;;;;;;2603513;54;20767;31
2022/11/17 02:26:25;;;;;;;;;;;4.20;99.90;;;;;;2603711;54;20720;31
2022/11/17 02:29:02;;;;;;;;;;;4.30;99.90;;;;;;2603696;54;19935;31
2022/11/17 02:31:38;;;;;;;;;;;4.30;99.90;;;;;;2603799;54;19946;31
2022/11/17 02:34:15;;;;;;;;;;;4.30;99.90;;;;;;2622209;46;19934;31
2022/11/17 02:36:48;;;;;;;;;;;4.30;99.90;;;;;;2702192;39;20390;31
2022/11/17 02:39:21;;;;;;;;;;;4.30;99.90;;;;;;2603428;54;20805;31
2022/11/17 02:41:56;;;;;;;;;;;4.30;99.90;;;;;;2603417;54;19934;31
2022/11/17 02:44:31;;;;;;;;;;;4.30;99.90;;;;;;2603318;54;20749;31
2022/11/17 02:47:04;;;;;;;;;;;4.30;99.90;;;;;;2622160;46;19934;31
2022/11/17 02:49:38;;;;;;;;;;;4.30;99.90;;;;;;2720619;39;20378;31
2022/11/17 02:52:12;;;;;;;;;;;4.30;99.90;;;;;;2603622;54;19961;31
2022/11/17 02:54:46;;;;;;;;;;;4.30;99.90;;;;;;2621808;46;19965;31
2022/11/17 02:57:30;;;;;;;;;;;4.30;99.90;;;;;;2603656;54;19941;31
2022/11/17 03:00:08;;;;;;;;;;;4.30;99.90;;;;;;2621775;47;19962;31
2022/11/17 03:02:51;;;;;;;;;;;4.30;99.90;;;;;;2710715;39;20384;31
2022/11/17 03:05:28;;;;;;;;;;;4.30;99.90;;;;;;2720343;39;20420;31
2022/11/17 03:08:09;;;;;;;;;;;4.20;99.90;;;;;;2621981;46;20837;31
2022/11/17 03:10:50;;;;;;;;;;;4.20;99.90;;;;;;2621738;46;19957;31
2022/11/17 03:13:27;;;;;;;;;;;4.30;99.90;;;;;;2603136;54;20732;31
2022/11/17 03:16:06;;;;;;;;;;;4.20;99.90;;;;;;2603610;54;20701;31
2022/11/17 03:18:42;;;;;;;;;;;4.20;99.90;;;;;;2603321;54;20761;31
2022/11/17 03:21:17;;;;;;;;;;;4.20;99.90;;;;;;2621775;46;20727;31
2022/11/17 03:23:51;;;;;;;;;;;4.30;99.90;;;;;;2701255;39;20480;31
2022/11/17 03:26:26;;;;;;;;;;;4.30;99.90;;;;;;2603588;54;19934;31
2022/11/17 03:28:59;;;;;;;;;;;4.20;99.90;;;;;;2603272;54;19954;31
2022/11/17 03:31:36;;;;;;;;;;;4.20;99.90;;;;;;2720355;39;20412;31
2022/11/17 03:34:11;;;;;;;;;;;4.20;99.90;;;;;;2603369;54;20488;31
2022/11/17 03:36:46;;;;;;;;;;;4.20;99.90;;;;;;2603311;54;20805;31
2022/11/17 03:39:22;;;;;;;;;;;4.20;99.90;;;;;;2603467;54;19930;31
2022/11/17 03:41:57;;;;;;;;;;;4.20;99.90;;;;;;2603183;54;19934;31
2022/11/17 03:44:30;;;;;;;;;;;4.20;99.90;;;;;;2621917;47;20686;31
2022/11/17 03:47:07;;;;;;;;;;;4.20;99.90;;;;;;2621647;47;20788;31
2022/11/17 03:49:41;;;;;;;;;;;4.20;99.90;;;;;;2603425;54;20735;31
2022/11/17 03:52:15;;;;;;;;;;;4.20;99.90;;;;;;2622021;47;20813;31
2022/11/17 03:54:50;;;;;;;;;;;4.20;99.90;;;;;;2621947;47;20780;31
2022/11/17 03:57:25;;;;;;;;;;;4.20;99.90;;;;;;2603042;54;20017;31
2022/11/17 04:00:00;;;;;;;;;;;4.20;99.90;;;;;;2603170;54;19968;31
2022/11/17 04:02:47;;;;;;;;;;;4.20;99.90;;;;;;2603135;54;19940;31
2022/11/17 04:05:21;;;;;;;;;;;4.20;99.90;;;;;;2621824;47;19951;31
2022/11/17 04:07:56;;;;;;;;;;;4.20;99.90;;;;;;2602976;54;20653;31
2022/11/17 04:10:29;;;;;;;;;;;4.20;99.90;;;;;;2603515;54;20753;31
2022/11/17 04:15:58;;;;;;;;;;;4.20;99.90;;;;;;2622540;46;20021;31
2022/11/17 04:18:35;;;;;;;;;;;4.20;99.90;;;;;;2622504;46;19934;31
2022/11/17 04:21:09;;;;;;;;;;;4.30;99.90;;;;;;2604200;54;19934;31
2022/11/17 04:23:43;;;;;;;;;;;4.30;99.90;;;;;;2604068;54;20743;31
2022/11/17 04:29:03;;;;;;;;;;;4.30;99.90;;;;;;2702746;39;20357;31
2022/11/17 04:31:37;;;;;;;;;;;4.30;99.90;;;;;;2721247;39;20389;31
2022/11/17 04:34:14;;;;;;;;;;;4.30;99.90;;;;;;2603908;54;19941;31
2022/11/17 04:36:46;;;;;;;;;;;4.30;99.90;;;;;;2605941;46;19941;31
2022/11/17 04:39:20;;;;;;;;;;;4.30;99.90;;;;;;2603760;54;20751;31
2022/11/17 04:41:56;;;;;;;;;;;4.20;99.90;;;;;;2603888;54;20020;31
2022/11/17 04:44:30;;;;;;;;;;;4.30;99.90;;;;;;2603907;54;20799;31
2022/11/17 04:47:05;;;;;;;;;;;4.30;99.90;;;;;;2774042;31;20471;31
2022/11/17 04:49:42;;;;;;;;;;;4.30;99.90;;;;;;2603670;54;19941;31
2022/11/17 04:52:15;;;;;;;;;;;4.30;99.90;;;;;;2603698;54;20756;31
2022/11/17 04:54:49;;;;;;;;;;;4.30;99.90;;;;;;2603903;54;19935;31
2022/11/17 04:57:23;;;;;;;;;;;4.30;99.90;;;;;;2604900;46;19934;31
2022/11/17 04:59:57;;;;;;;;;;;5.20;99.90;;;;;;2603837;54;20795;31
2022/11/17 05:02:31;;;;;;;;;;;4.30;99.90;;;;;;2622037;46;19941;31
2022/11/17 05:05:08;;;;;;;;;;;4.30;99.90;;;;;;2720809;39;20473;31
2022/11/17 05:07:42;;;;;;;;;;;4.30;99.90;;;;;;2603901;54;19993;31
2022/11/17 05:13:20;;;;;;;;;;;4.30;99.90;;;;;;2622304;46;19934;31
2022/11/17 05:13:24;;;;;;;;;;;4.30;99.90;;;;;;2603724;54;19961;31
2022/11/17 05:18:45;;;;;;;;;;;4.30;99.90;;;;;;2622432;46;19934;31
2022/11/17 05:21:21;;;;;;;;;;;4.30;99.90;;;;;;2603447;54;20678;31
2022/11/17 05:23:53;;;;;;;;;;;4.30;99.90;;;;;;2622108;46;19989;31
2022/11/17 05:26:26;;;;;;;;;;;4.90;99.90;;;;;;2622268;46;19946;31
2022/11/17 05:28:59;;;;;;;;;;;4.30;99.90;;;;;;2603882;54;19934;31
2022/11/17 05:31:33;;;;;;;;;;;4.30;99.90;;;;;;2622343;46;19946;31
2022/11/17 05:34:07;;;;;;;;;;;4.30;99.90;;;;;;2603609;54;21752;31
2022/11/17 05:36:44;;;;;;;;;;;4.30;99.90;;;;;;2622096;46;19934;31
2022/11/17 05:39:17;;;;;;;;;;;4.30;99.90;;;;;;2622471;46;19934;31
2022/11/17 05:44:22;;;;;;;;;;;4.30;99.90;;;;;;2603773;54;21521;31
2022/11/17 05:46:56;;;;;;;;;;;4.30;99.90;;;;;;2603788;54;20764;31
2022/11/17 05:49:30;;;;;;;;;;;4.30;99.90;;;;;;2622398;46;21285;31
2022/11/17 05:52:07;;;;;;;;;;;4.30;99.90;;;;;;2622282;46;19993;31
2022/11/17 05:54:41;;;;;;;;;;;4.80;99.90;;;;;;2622397;46;19934;31
2022/11/17 05:57:17;;;;;;;;;;;4.30;99.90;;;;;;2622261;46;19934;31
2022/11/17 05:59:50;;;;;;;;;;;4.30;99.90;;;;;;2603727;54;19997;31
2022/11/17 06:02:25;;;;;;;;;;;4.30;99.90;;;;;;2622129;46;19941;31
2022/11/17 06:04:59;;;;;;;;;;;4.30;99.90;;;;;;2603688;54;19934;31
2022/11/17 06:07:36;;;;;;;;;;;4.30;99.90;;;;;;2603779;54;20710;31
2022/11/17 06:10:11;;;;;;;;;;;4.30;99.90;;;;;;2603698;54;19961;31
2022/11/17 06:12:44;;;;;;;;;;;4.30;99.90;;;;;;2622012;46;19934;31
2022/11/17 06:15:19;;;;;;;;;;;4.30;99.90;;;;;;2603654;54;20750;31
2022/11/17 06:17:52;;;;;;;;;;;4.20;99.90;;;;;;2603499;54;20745;31
2022/11/17 06:20:27;;;;;;;;;;;4.30;99.90;;;;;;2603313;54;19934;31
2022/11/17 06:23:03;;;;;;;;;;;4.30;99.90;;;;;;2611854;46;19956;31
2022/11/17 06:25:37;;;;;;;;;;;4.30;99.90;;;;;;2603613;54;20009;31
2022/11/17 06:28:12;;;;;;;;;;;4.30;99.90;;;;;;2603839;54;19935;31
2022/11/17 06:30:45;;;;;;;;;;;4.30;99.90;;;;;;2622380;46;20793;31
2022/11/17 06:33:19;;;;;;;;;;;4.30;99.90;;;;;;2603127;54;20784;31
2022/11/17 06:35:54;;;;;;;;;;;4.30;99.90;;;;;;2603469;54;20798;31
2022/11/17 06:38:30;;;;;;;;;;;4.30;99.90;;;;;;2622199;46;19935;31
2022/11/17 06:41:05;;;;;;;;;;;4.30;99.90;;;;;;2603476;54;20013;31
2022/11/17 06:43:45;;;;;;;;;;;4.20;99.90;;;;;;2621991;46;20768;31
2022/11/17 06:46:18;;;;;;;;;;;4.30;99.90;;;;;;2603756;54;19989;31
2022/11/17 06:48:53;;;;;;;;;;;4.20;99.90;;;;;;2621932;46;19942;31
2022/11/17 06:51:29;;;;;;;;;;;4.20;99.90;;;;;;2603624;54;19934;31
2022/11/17 06:54:08;;;;;;;;;;;4.20;99.90;;;;;;2622158;46;19942;31
2022/11/17 06:56:42;;;;;;;;;;;4.20;99.90;;;;;;2621900;46;19934;31
2022/11/17 06:59:17;;;;;;;;;;;4.20;99.90;;;;;;2603534;54;20740;31
2022/11/17 07:01:51;;;;;;;;;;;4.20;99.90;;;;;;2621910;46;20798;31
2022/11/17 07:04:27;;;;;;;;;;;4.20;99.90;;;;;;2603558;54;19946;31
2022/11/17 07:07:02;;;;;;;;;;;4.20;99.90;;;;;;2603440;54;19934;31
2022/11/17 07:09:39;;;;;;;;;;;4.20;99.90;;;;;;2621970;46;19973;31
2022/11/17 07:12:15;;;;;;;;;;;4.30;99.90;;;;;;2621911;46;19998;31
2022/11/17 07:14:48;;;;;;;;;;;4.30;99.90;;;;;;2603068;54;19938;31
2022/11/17 07:17:23;;;;;;;;;;;4.30;99.90;;;;;;2701184;39;20398;31
2022/11/17 07:19:59;;;;;;;;;;;4.30;99.90;;;;;;2603338;54;19935;31
2022/11/17 07:22:34;;;;;;;;;;;4.30;99.90;;;;;;2603241;54;20009;31
2022/11/17 07:25:11;;;;;;;;;;;4.30;99.90;;;;;;2603542;54;19946;31
2022/11/17 07:27:45;;;;;;;;;;;4.30;99.90;;;;;;2603539;54;20021;31
2022/11/17 07:30:24;;;;;;;;;;;4.80;99.90;;;;;;2603277;54;19947;31
2022/11/17 07:32:59;;;;;;;;;;;4.30;99.90;;;;;;2603017;54;19934;31
2022/11/17 07:35:34;;;;;;;;;;;4.30;99.90;;;;;;2603599;54;20785;31
2022/11/17 07:38:09;;;;;;;;;;;4.30;99.90;;;;;;2621538;46;19958;31
2022/11/17 07:40:49;;;;;;;;;;;4.30;99.90;;;;;;2603469;54;20739;31
2022/11/17 07:43:21;;;;;;;;;;;4.30;99.90;;;;;;2621312;47;19989;31
2022/11/17 07:45:55;;;;;;;;;;;4.30;99.90;;;;;;2604004;54;20769;31
2022/11/17 07:48:31;;;;;;;;;;;4.30;99.90;;;;;;2603929;54;20769;31
2022/11/17 07:51:05;;;;;;;;;;;4.30;99.90;;;;;;2603982;54;19935;31
2022/11/17 07:53:45;;;;;;;;;;;4.30;99.90;;;;;;2702366;39;20393;31
2022/11/17 07:56:26;;;;;;;;;;;4.30;99.90;;;;;;2606913;46;19949;31
2022/11/17 07:59:00;;;;;;;;;;;4.30;99.90;;;;;;2622806;46;19935;31
2022/11/17 08:01:35;;;;;;;;;;;4.30;99.90;;;;;;2603948;54;20797;31
2022/11/17 08:04:11;;;;;;;;;;;4.30;99.90;;;;;;2622611;46;19946;31
2022/11/17 08:06:52;;;;;;;;;;;4.30;99.90;;;;;;2604069;54;19985;31
2022/11/17 08:09:27;;;;;;;;;;;4.30;99.90;;;;;;2622569;46;19935;31
2022/11/17 08:12:05;;;;;;;;;;;4.30;99.90;;;;;;2603752;54;19934;31
2022/11/17 08:14:39;;;;;;;;;;;4.30;99.90;;;;;;2622379;46;20466;31
2022/11/17 08:17:13;;;;;;;;;;;4.30;99.90;;;;;;2622375;46;19942;31
2022/11/17 08:19:47;;;;;;;;;;;4.30;99.90;;;;;;2603842;54;19934;31
2022/11/17 08:22:23;;;;;;;;;;;4.30;99.90;;;;;;2603747;54;20474;31
2022/11/17 08:24:59;;;;;;;;;;;4.30;99.90;;;;;;2622372;46;19956;31
2022/11/17 08:27:36;;;;;;;;;;;4.30;99.90;;;;;;2622522;46;20743;31
2022/11/17 08:30:11;;;;;;;;;;;4.30;99.90;;;;;;2603926;54;19957;31
2022/11/17 08:32:48;;;;;;;;;;;4.30;99.90;;;;;;2622560;46;19935;31
2022/11/17 08:35:23;;;;;;;;;;;4.90;99.90;;;;;;2603874;54;20697;31
2022/11/17 08:37:57;;;;;;;;;;;4.30;99.90;;;;;;2603965;54;20755;31
2022/11/17 08:40:32;;;;;;;;;;;4.30;99.90;;;;;;2603802;54;20815;31
2022/11/17 08:43:11;;;;;;;;;;;4.30;99.90;;;;;;2603885;54;20832;31
2022/11/17 08:45:46;;;;;;;;;;;4.30;99.90;;;;;;2622292;46;19942;31
2022/11/17 08:48:22;;;;;;;;;;;4.30;99.90;;;;;;2603883;54;20766;31
2022/11/17 08:50:58;;;;;;;;;;;4.30;99.90;;;;;;2604001;54;19942;31
2022/11/17 08:53:39;;;;;;;;;;;4.30;99.90;;;;;;2622404;46;19989;31
2022/11/17 08:56:15;;;;;;;;;;;4.30;99.90;;;;;;2603529;54;20718;31
2022/11/17 08:58:53;;;;;;;;;;;4.20;99.90;;;;;;2622192;46;19946;31
2022/11/17 09:01:28;;;;;;;;;;;4.20;99.90;;;;;;2622416;46;20037;31
2022/11/17 09:04:05;;;;;;;;;;;4.20;99.90;;;;;;2622001;46;19985;31
2022/11/17 09:06:41;;;;;;;;;;;4.20;99.90;;;;;;2603850;54;20785;31
2022/11/17 09:09:16;;;;;;;;;;;4.20;99.90;;;;;;2619163;46;20000;31
2022/11/17 09:11:48;;;;;;;;;;;4.30;99.90;;;;;;2773891;31;22384;31
2022/11/17 09:14:27;;;;;;;;;;;4.30;99.90;;;;;;2622271;46;19934;31
2022/11/17 09:17:02;;;;;;;;;;;4.30;99.90;;;;;;2622282;46;20014;31
2022/11/17 09:19:35;;;;;;;;;;;4.30;99.90;;;;;;2622379;46;19989;31
2022/11/17 09:22:12;;;;;;;;;;;4.30;99.90;;;;;;2603878;54;19934;31
2022/11/17 09:24:49;;;;;;;;;;;4.30;99.90;;;;;;2603579;54;20755;31
2022/11/17 09:27:25;;;;;;;;;;;4.30;99.90;;;;;;2603735;54;20764;31
2022/11/17 09:30:02;;;;;;;;;;;4.20;99.90;;;;;;2603491;54;20776;31
2022/11/17 09:32:37;;;;;;;;;;;4.30;99.90;;;;;;2611501;46;19935;31
2022/11/17 09:35:11;;;;;;;;;;;4.30;99.90;;;;;;2603574;54;19946;31
2022/11/17 09:37:46;;;;;;;;;;;4.30;99.90;;;;;;2622351;46;19934;31
2022/11/17 09:40:21;;;;;;;;;;;4.30;99.90;;;;;;2622426;46;20746;31
2022/11/17 09:42:56;;;;;;;;;;;4.30;99.90;;;;;;2603651;54;19934;31
2022/11/17 09:45:33;;;;;;;;;;;4.30;99.90;;;;;;2621821;46;20750;31
2022/11/17 09:48:10;;;;;;;;;;;4.30;99.90;;;;;;2603487;54;19986;31
2022/11/17 09:51:05;;;;;;;;;;;4.30;99.90;;;;;;2603801;54;19981;31
2022/11/17 09:53:42;;;;;;;;;;;4.30;99.90;;;;;;2622539;46;19957;31
2022/11/17 09:56:17;;;;;;;;;;;4.30;99.90;;;;;;2603599;54;20797;31
2022/11/17 09:58:52;;;;;;;;;;;4.20;99.90;;;;;;2702251;39;20406;31
2022/11/17 10:01:32;;;;;;;;;;;4.20;99.90;;;;;;2603489;54;20819;31
2022/11/17 10:04:10;;;;;;;;;;;4.20;99.90;;;;;;2603556;54;19934;31
2022/11/17 10:06:43;;;;;;;;;;;4.20;99.90;;;;;;2603577;54;19993;31
2022/11/17 10:09:20;;;;;;;;;;;4.20;99.90;;;;;;2603594;54;20784;31
2022/11/17 10:12:01;;;;;;;;;;;4.20;99.90;;;;;;2622089;46;19934;31
2022/11/17 10:14:35;;;;;;;;;;;4.20;99.90;;;;;;2702071;39;20457;31
2022/11/17 10:17:13;;;;;;;;;;;4.20;99.90;;;;;;2603742;54;20450;31
2022/11/17 10:19:47;;;;;;;;;;;4.20;99.90;;;;;;2622090;46;19942;31
2022/11/17 10:22:23;;;;;;;;;;;4.30;99.90;;;;;;2720639;39;20405;31
2022/11/17 10:24:59;;;;;;;;;;;4.30;99.90;;;;;;2614163;46;20764;31
2022/11/17 10:27:36;;;;;;;;;;;4.20;99.90;;;;;;2792368;31;20520;31
2022/11/17 10:30:10;;;;;;;;;;;4.20;99.90;;;;;;2603626;54;20632;31
2022/11/17 10:32:52;;;;;;;;;;;4.20;99.90;;;;;;2621842;46;19943;31
2022/11/17 10:35:25;;;;;;;;;;;4.20;99.90;;;;;;2701922;39;21463;31
2022/11/17 10:38:00;;;;;;;;;;;4.20;99.90;;;;;;2603398;54;20794;31
2022/11/17 10:40:37;;;;;;;;;;;4.20;99.90;;;;;;2702204;39;20417;31
2022/11/17 10:43:20;;;;;;;;;;;4.20;99.90;;;;;;2603687;54;19934;31
2022/11/17 10:45:55;;;;;;;;;;;4.20;99.90;;;;;;2622058;46;19934;31
2022/11/17 10:48:33;;;;;;;;;;;4.20;99.90;;;;;;2603417;54;20801;31
2022/11/17 10:51:10;;;;;;;;;;;4.20;99.90;;;;;;2603648;54;20754;31
2022/11/17 10:53:44;;;;;;;;;;;4.20;99.90;;;;;;2603469;54;20702;31
2022/11/17 10:56:20;;;;;;;;;;;4.30;99.90;;;;;;2603135;54;19935;31
2022/11/17 10:58:57;;;;;;;;;;;4.30;99.90;;;;;;2603769;54;19942;31
2022/11/17 11:01:34;;;;;;;;;;;4.30;99.90;;;;;;2603602;54;19993;31
2022/11/17 11:04:27;;;;;;;;;;;4.30;99.90;;;;;;2603414;54;20822;31
2022/11/17 11:07:09;;;;;;;;;;;4.30;99.90;;;;;;2603593;54;19942;31
2022/11/17 11:09:47;;;;;;;;;;;4.30;99.90;;;;;;2603178;54;20825;31
2022/11/17 11:12:23;;;;;;;;;;;4.30;99.90;;;;;;2603517;54;19935;31
2022/11/17 11:15:00;;;;;;;;;;;4.30;99.90;;;;;;2622044;46;19950;31
2022/11/17 11:17:34;;;;;;;;;;;4.30;99.90;;;;;;2603339;54;19934;31
2022/11/17 11:20:14;;;;;;;;;;;4.30;99.90;;;;;;2604030;46;19965;31
2022/11/17 11:22:51;;;;;;;;;;;4.30;99.90;;;;;;2603504;54;19989;31
2022/11/17 11:25:26;;;;;;;;;;;4.20;99.90;;;;;;2603297;54;19942;31
2022/11/17 11:28:08;;;;;;;;;;;4.20;99.90;;;;;;2603323;54;19938;31
2022/11/17 11:30:44;;;;;;;;;;;4.30;99.90;;;;;;2603530;54;19934;31
2022/11/17 11:33:26;;;;;;;;;;;4.20;99.90;;;;;;2603415;54;19934;31
2022/11/17 11:36:10;;;;;;;;;;;4.20;99.90;;;;;;2621920;46;20723;31
2022/11/17 11:38:50;;;;;;;;;;;4.20;99.90;;;;;;2621944;46;19957;31
2022/11/17 11:41:37;;;;;;;;;;;4.20;99.90;;;;;;2603558;54;19993;31
2022/11/17 11:44:18;;;;;;;;;;;4.20;99.90;;;;;;2603068;54;20773;31
2022/11/17 11:46:56;;;;;;;;;;;4.20;99.90;;;;;;2602929;54;19985;31
2022/11/17 11:49:33;;;;;;;;;;;4.20;99.90;;;;;;2621516;47;20641;31
2022/11/17 11:52:12;;;;;;;;;;;4.10;99.90;;;;;;2621890;47;19943;31
2022/11/17 11:54:46;;;;;;;;;;;4.20;99.90;;;;;;2602571;54;20806;31
2022/11/17 11:57:25;;;;;;;;;;;4.20;99.90;;;;;;2620971;47;20818;31
2022/11/17 12:00:01;;;;;;;;;;;4.10;99.90;;;;;;2602633;54;20762;31
2022/11/17 12:02:42;;;;;;;;;;;4.20;99.90;;;;;;2621893;47;19942;31
2022/11/17 12:05:19;;;;;;;;;;;4.10;99.90;;;;;;2602983;54;19934;31
2022/11/17 12:07:58;;;;;;;;;;;4.10;99.90;;;;;;2613576;47;19934;31
2022/11/17 12:10:32;;;;;;;;;;;4.10;99.90;;;;;;2603196;54;20720;31
2022/11/17 12:13:12;;;;;;;;;;;4.10;99.90;;;;;;2603094;54;20826;31
2022/11/17 12:15:47;;;;;;;;;;;4.10;99.90;;;;;;2603202;54;19942;31
2022/11/17 12:18:32;;;;;;;;;;;4.10;99.90;;;;;;2603079;54;19942;31
2022/11/17 12:21:07;;;;;;;;;;;4.10;99.90;;;;;;2603199;54;19935;31
2022/11/17 12:23:56;;;;;;;;;;;4.20;99.90;;;;;;2603083;54;19934;31
2022/11/17 12:26:34;;;;;;;;;;;4.20;99.90;;;;;;2607764;47;19943;31
2022/11/17 12:29:24;;;;;;;;;;;4.20;99.90;;;;;;2603062;54;19940;31
2022/11/17 12:32:01;;;;;;;;;;;4.20;99.90;;;;;;2603953;54;20720;31
2022/11/17 12:34:36;;;;;;;;;;;4.20;99.90;;;;;;2720860;39;21235;31
2022/11/17 12:37:30;;;;;;;;;;;4.20;99.90;;;;;;2604077;54;20801;31
2022/11/17 12:40:08;;;;;;;;;;;4.20;99.90;;;;;;2622176;46;19973;31
2022/11/17 12:43:08;;;;;;;;;;;4.20;99.90;;;;;;2622447;46;19934;31
2022/11/17 12:45:57;;;;;;;;;;;4.20;99.90;;;;;;2603760;54;21325;31
2022/11/17 12:51:09;;;;;;;;;;;4.20;99.90;;;;;;2603631;54;20734;31
2022/11/17 12:53:54;;;;;;;;;;;4.20;99.90;;;;;;2622195;46;19942;31
2022/11/17 12:56:47;;;;;;;;;;;4.20;99.90;;;;;;2622173;46;19978;31
2022/11/17 12:59:26;;;;;;;;;;;4.20;99.90;;;;;;2604120;54;19961;31
2022/11/17 13:02:06;;;;;;;;;;;4.20;99.90;;;;;;2603926;54;20756;31
2022/11/17 13:04:43;;;;;;;;;;;4.20;99.90;;;;;;2603831;54;19941;31
2022/11/17 13:07:24;;;;;;;;;;;4.20;99.90;;;;;;2621791;46;20696;31
2022/11/17 13:10:01;;;;;;;;;;;4.20;99.90;;;;;;2622174;46;19940;31
2022/11/17 13:12:36;;;;;;;;;;;4.20;99.90;;;;;;2603713;54;19935;31
2022/11/17 13:15:23;;;;;;;;;;;4.20;99.90;;;;;;2622212;46;19958;31
2022/11/17 13:18:04;;;;;;;;;;;4.10;99.90;;;;;;2603675;54;20446;31
2022/11/17 13:20:39;;;;;;;;;;;4.10;99.90;;;;;;2603918;54;20793;31
2022/11/17 13:23:15;;;;;;;;;;;4.00;99.90;;;;;;2622200;46;19973;31
2022/11/17 13:25:50;;;;;;;;;;;4.00;99.90;;;;;;2604025;54;19935;31
2022/11/17 13:28:28;;;;;;;;;;;4.00;99.90;;;;;;2622429;46;19942;31
2022/11/17 13:31:04;;;;;;;;;;;3.90;99.90;;;;;;2603887;54;19941;31
2022/11/17 13:33:43;;;;;;;;;;;3.90;99.90;;;;;;2603665;54;19938;31
2022/11/17 13:36:19;;;;;;;;;;;3.80;99.90;;;;;;2622197;46;19942;31
2022/11/17 13:38:56;;;;;;;;;;;3.80;99.90;;;;;;2603645;54;20520;31
2022/11/17 13:41:31;;;;;;;;;;;3.80;99.90;;;;;;2603542;54;20773;31
2022/11/17 13:44:08;;;;;;;;;;;3.80;99.90;;;;;;2602952;54;19942;31
2022/11/17 13:46:43;;;;;;;;;;;3.80;99.90;;;;;;2603638;54;20758;31
2022/11/17 13:49:36;;;;;;;;;;;3.80;99.90;;;;;;2702013;39;20396;31
2022/11/17 13:52:15;;;;;;;;;;;3.70;99.90;;;;;;2603577;54;19957;31
2022/11/17 13:54:54;;;;;;;;;;;3.70;99.90;;;;;;2603634;54;19939;31
2022/11/17 13:57:29;;;;;;;;;;;3.70;99.90;;;;;;2603574;54;20539;31
2022/11/17 14:00:04;;;;;;;;;;;3.60;99.90;;;;;;2603575;54;20774;31
2022/11/17 14:02:49;;;;;;;;;;;3.60;99.90;;;;;;2603750;54;19960;31
2022/11/17 14:05:24;;;;;;;;;;;3.70;99.90;;;;;;2603697;54;20005;31
2022/11/17 14:08:13;;;;;;;;;;;3.60;99.90;;;;;;2603685;54;20778;31
2022/11/17 14:13:21;;;;;;;;;;;3.60;99.90;;;;;;2603819;54;19941;31
2022/11/17 14:15:56;;;;;;;;;;;3.60;99.90;;;;;;2702214;39;21340;31
2022/11/17 14:18:32;;;;;;;;;;;3.70;99.90;;;;;;2603374;54;19935;31
2022/11/17 14:21:11;;;;;;;;;;;3.70;99.90;;;;;;2603507;54;20470;31
2022/11/17 14:23:49;;;;;;;;;;;3.70;99.90;;;;;;2603344;54;20496;31
2022/11/17 14:26:24;;;;;;;;;;;3.70;99.90;;;;;;2608616;46;20750;31
2022/11/17 14:29:01;;;;;;;;;;;3.70;99.90;;;;;;2603506;54;20743;31
2022/11/17 14:31:34;;;;;;;;;;;3.70;99.90;;;;;;2603900;54;19934;31
2022/11/17 14:34:07;;;;;;;;;;;3.60;99.90;;;;;;2622285;46;20470;31
2022/11/17 14:36:42;;;;;;;;;;;3.60;99.90;;;;;;2603636;54;20470;31
2022/11/17 14:39:19;;;;;;;;;;;3.60;99.90;;;;;;2603652;54;20466;31
2022/11/17 14:41:55;;;;;;;;;;;3.60;99.90;;;;;;2622028;46;20013;31
2022/11/17 14:44:30;;;;;;;;;;;3.60;99.90;;;;;;2603521;54;20009;31
2022/11/17 14:47:05;;;;;;;;;;;3.60;99.90;;;;;;2621895;46;20010;31
2022/11/17 14:49:41;;;;;;;;;;;3.60;99.90;;;;;;2621668;46;19946;31
2022/11/17 14:52:18;;;;;;;;;;;3.60;99.90;;;;;;2603350;54;20789;31
2022/11/17 14:54:57;;;;;;;;;;;3.60;99.90;;;;;;2603256;54;19935;31
2022/11/17 14:57:34;;;;;;;;;;;3.60;99.90;;;;;;2603154;54;20506;31
2022/11/17 15:00:09;;;;;;;;;;;3.50;99.90;;;;;;2603470;54;19946;31
2022/11/17 15:02:49;;;;;;;;;;;3.50;99.90;;;;;;2603372;54;20773;31
2022/11/17 15:05:26;;;;;;;;;;;3.60;99.90;;;;;;2603529;54;19941;31
2022/11/17 15:08:02;;;;;;;;;;;4.30;99.90;;;;;;2603467;54;20718;31
2022/11/17 15:10:38;;;;;;;;;;;3.60;99.90;;;;;;2617976;46;20801;31
2022/11/17 15:13:15;;;;;;;;;;;3.50;99.90;;;;;;2603620;54;20730;31
2022/11/17 15:15:51;;;;;;;;;;;3.50;99.90;;;;;;2621497;46;19934;31
2022/11/17 15:18:28;;;;;;;;;;;3.50;99.90;;;;;;2622104;46;20825;31
2022/11/17 15:21:03;;;;;;;;;;;3.60;99.90;;;;;;2603588;54;20765;31
2022/11/17 15:23:39;;;;;;;;;;;3.60;99.90;;;;;;2603499;54;20809;31
2022/11/17 15:26:19;;;;;;;;;;;3.50;99.90;;;;;;2621655;46;19942;31
2022/11/17 15:28:53;;;;;;;;;;;3.50;99.90;;;;;;2602678;54;20741;31
2022/11/17 15:31:29;;;;;;;;;;;3.50;99.90;;;;;;2621988;46;19942;31
2022/11/17 15:34:04;;;;;;;;;;;3.50;99.90;;;;;;2603510;54;20693;31
2022/11/17 15:36:40;;;;;;;;;;;3.50;99.90;;;;;;2720364;39;20409;31
2022/11/17 15:39:15;;;;;;;;;;;3.40;99.90;;;;;;2603588;54;19946;31
2022/11/17 15:41:55;;;;;;;;;;;3.40;99.90;;;;;;2621808;46;20830;31
2022/11/17 15:44:29;;;;;;;;;;;3.40;99.90;;;;;;2621555;46;20723;31
2022/11/17 15:47:03;;;;;;;;;;;3.40;99.90;;;;;;2602627;54;19943;31
2022/11/17 15:49:39;;;;;;;;;;;3.40;99.90;;;;;;2701560;39;20413;31
2022/11/17 15:52:14;;;;;;;;;;;3.40;99.90;;;;;;2603385;54;20766;31
2022/11/17 15:54:48;;;;;;;;;;;3.40;99.90;;;;;;2621583;47;20505;31
2022/11/17 15:57:27;;;;;;;;;;;3.30;99.90;;;;;;2621776;47;21295;31
2022/11/17 16:00:01;;;;;;;;;;;3.30;99.90;;;;;;2603204;54;19934;31
2022/11/17 16:02:38;;;;;;;;;;;3.30;99.90;;;;;;2603402;54;20793;31
2022/11/17 16:05:13;;;;;;;;;;;3.30;99.90;;;;;;2621949;47;19942;31